Time;durP1;ratioP1;P1;durP2;ratioP2;P2;SDS_P1;SDS_P2;PMS_P1;PMS_P2;Temp;Humidity;BMP_temperature;BMP_pressure;BME280_temperature;BME280_humidity;BME280_pressure;Samples;Min_cycle;Max_cycle;Signal;HPM_P1;HPM_P2
2021/09/17 07:13:14;;;;;;;8.85;6.38;;;;;;;;;;4948121;23;20691;-45
2021/09/17 07:15:40;;;;;;;8.95;7.20;;;;;;;;;;4932468;29;20481;-48
2021/09/17 07:18:11;;;;;;;10.45;7.10;;;;;;;;;;4934760;29;20973;-45
2021/09/17 07:20:40;;;;;;;8.17;6.37;;;;;;;;;;4934298;29;20420;-45
2021/09/17 07:23:07;;;;;;;10.20;7.07;;;;;;;;;;4915681;29;20412;-46
2021/09/17 07:25:33;;;;;;;10.23;7.47;;;;;;;;;;4932750;29;20421;-48
2021/09/17 07:28:00;;;;;;;10.43;6.97;;;;;;;;;;4948884;28;20385;-52
2021/09/17 07:30:26;;;;;;;10.63;7.35;;;;;;;;;;4930244;29;20732;-53
2021/09/17 07:32:52;;;;;;;11.05;7.18;;;;;;;;;;4950071;28;20405;-51
2021/09/17 07:35:19;;;;;;;10.43;7.05;;;;;;;;;;4928701;29;20488;-52
2021/09/17 07:37:46;;;;;;;11.13;7.63;;;;;;;;;;4946351;29;20445;-52
2021/09/17 07:40:14;;;;;;;10.93;7.75;;;;;;;;;;4948013;28;20405;-56
2021/09/17 07:42:47;;;;;;;12.07;7.80;;;;;;;;;;4949576;29;20390;-55
2021/09/17 07:45:15;;;;;;;12.33;8.13;;;;;;;;;;4948937;28;20401;-52
2021/09/17 07:47:41;;;;;;;10.90;7.93;;;;;;;;;;4948025;28;20382;-56
2021/09/17 07:50:09;;;;;;;10.30;7.47;;;;;;;;;;4933644;29;20477;-55
2021/09/17 07:52:35;;;;;;;11.53;7.90;;;;;;;;;;4932899;29;20476;-56
2021/09/17 07:55:01;;;;;;;11.30;8.38;;;;;;;;;;4955067;28;20403;-50
2021/09/17 07:57:28;;;;;;;11.18;7.55;;;;;;;;;;4949456;28;20469;-51
2021/09/17 07:59:54;;;;;;;10.50;7.63;;;;;;;;;;4948058;28;20465;-50
2021/09/17 08:02:20;;;;;;;10.63;7.50;;;;;;;;;;4927445;29;20400;-56
2021/09/17 08:04:46;;;;;;;10.60;6.93;;;;;;;;;;4943289;28;20491;-53
2021/09/17 08:07:12;;;;;;;11.38;7.30;;;;;;;;;;4946998;28;20390;-48
2021/09/17 08:09:38;;;;;;;10.77;6.72;;;;;;;;;;4930769;29;20770;-48
2021/09/17 08:12:05;;;;;;;12.15;7.13;;;;;;;;;;4934191;29;20425;-49
2021/09/17 08:14:31;;;;;;;10.13;6.97;;;;;;;;;;4951046;29;20433;-50
2021/09/17 08:16:57;;;;;;;9.97;6.57;;;;;;;;;;4956795;28;20433;-52
2021/09/17 08:19:24;;;;;;;9.43;6.63;;;;;;;;;;4951743;28;20457;-51
2021/09/17 08:21:50;;;;;;;8.18;5.78;;;;;;;;;;4935904;29;20462;-52
2021/09/17 08:24:17;;;;;;;9.18;5.97;;;;;;;;;;4952721;28;20893;-53
2021/09/17 08:26:44;;;;;;;9.10;6.10;;;;;;;;;;4934752;29;20410;-55
2021/09/17 08:29:10;;;;;;;7.53;5.57;;;;;;;;;;4935397;29;20421;-50
2021/09/17 08:31:37;;;;;;;8.93;5.63;;;;;;;;;;4936458;28;20480;-53
2021/09/17 08:34:03;;;;;;;8.27;5.60;;;;;;;;;;4936086;29;20440;-53
2021/09/17 08:36:30;;;;;;;7.85;5.78;;;;;;;;;;4936453;29;20437;-54
2021/09/17 08:38:56;;;;;;;8.05;5.60;;;;;;;;;;4936475;29;20406;-51
2021/09/17 08:41:22;;;;;;;7.95;5.30;;;;;;;;;;4952588;28;20468;-52
2021/09/17 08:43:48;;;;;;;8.60;5.28;;;;;;;;;;4935792;28;20386;-49
2021/09/17 08:46:15;;;;;;;8.65;5.43;;;;;;;;;;4954013;28;20378;-49
2021/09/17 08:48:42;;;;;;;8.50;4.90;;;;;;;;;;4934365;29;20932;-51
2021/09/17 08:51:08;;;;;;;7.13;5.28;;;;;;;;;;4931096;29;20910;-50
2021/09/17 08:53:34;;;;;;;7.28;4.75;;;;;;;;;;4935597;29;20406;-49
2021/09/17 08:56:00;;;;;;;5.60;4.27;;;;;;;;;;4958519;28;20440;-50
2021/09/17 08:58:27;;;;;;;6.53;4.57;;;;;;;;;;4952689;28;20428;-48
2021/09/17 09:00:55;;;;;;;7.70;5.47;;;;;;;;;;4953026;28;20382;-46
2021/09/17 09:03:29;;;;;;;6.53;5.10;;;;;;;;;;4933968;29;20413;-47
2021/09/17 09:05:55;;;;;;;7.57;6.00;;;;;;;;;;4934654;28;20406;-51
2021/09/17 09:08:22;;;;;;;7.90;6.50;;;;;;;;;;4952202;29;20374;-48
2021/09/17 09:10:48;;;;;;;8.27;6.77;;;;;;;;;;4933515;29;20413;-46
2021/09/17 09:13:16;;;;;;;6.70;5.97;;;;;;;;;;4934052;29;20438;-48
2021/09/17 09:15:42;;;;;;;7.65;6.28;;;;;;;;;;4933732;29;20410;-46
2021/09/17 09:18:09;;;;;;;6.65;5.82;;;;;;;;;;4952514;28;20406;-48
2021/09/17 09:20:36;;;;;;;6.80;5.53;;;;;;;;;;4934130;29;20410;-48
2021/09/17 09:23:20;;;;;;;6.85;5.32;;;;;;;;;;4933744;29;21222;-47
2021/09/17 09:25:58;;;;;;;7.18;5.53;;;;;;;;;;4950775;28;20917;-48
2021/09/17 09:28:28;;;;;;;6.95;5.35;;;;;;;;;;4948137;28;20393;-48
2021/09/17 09:30:54;;;;;;;6.70;5.63;;;;;;;;;;4957833;28;20461;-47
2021/09/17 09:33:28;;;;;;;6.53;5.43;;;;;;;;;;4935764;29;20394;-46
2021/09/17 09:35:56;;;;;;;6.22;5.15;;;;;;;;;;4933956;28;20438;-47
2021/09/17 09:38:29;;;;;;;6.90;5.43;;;;;;;;;;4934666;29;20397;-48
2021/09/17 09:41:01;;;;;;;5.60;4.73;;;;;;;;;;4933933;29;20402;-51
2021/09/17 09:43:29;;;;;;;5.45;4.70;;;;;;;;;;4934136;28;20409;-48
2021/09/17 09:45:57;;;;;;;5.00;4.30;;;;;;;;;;4951639;28;20401;-48
2021/09/17 09:48:24;;;;;;;7.00;4.88;;;;;;;;;;4955804;28;20394;-45
2021/09/17 09:50:50;;;;;;;5.40;4.38;;;;;;;;;;4934564;29;20873;-47
2021/09/17 09:53:16;;;;;;;5.10;4.25;;;;;;;;;;4951184;28;20412;-46
2021/09/17 09:55:42;;;;;;;4.87;4.27;;;;;;;;;;4951524;29;20429;-46
2021/09/17 09:58:09;;;;;;;5.18;4.10;;;;;;;;;;4940257;28;20471;-46
2021/09/17 10:00:36;;;;;;;4.53;3.87;;;;;;;;;;4934081;29;20735;-45
2021/09/17 10:03:02;;;;;;;5.03;3.80;;;;;;;;;;4933936;29;20409;-49
2021/09/17 10:05:30;;;;;;;4.60;4.03;;;;;;;;;;4951130;29;20473;-46
2021/09/17 10:07:57;;;;;;;5.10;4.40;;;;;;;;;;4951869;28;20421;-46
2021/09/17 10:10:26;;;;;;;5.47;4.28;;;;;;;;;;4943862;29;20402;-48
2021/09/17 10:12:52;;;;;;;5.60;4.18;;;;;;;;;;4934523;29;20418;-48
2021/09/17 10:15:18;;;;;;;5.70;4.15;;;;;;;;;;4950213;28;20629;-47
2021/09/17 10:17:49;;;;;;;5.10;3.90;;;;;;;;;;4932663;29;20938;-54
2021/09/17 10:20:15;;;;;;;5.03;4.00;;;;;;;;;;4943657;28;20397;-48
2021/09/17 10:22:43;;;;;;;4.88;4.10;;;;;;;;;;4946110;28;20892;-48
2021/09/17 10:25:09;;;;;;;4.22;3.80;;;;;;;;;;4931041;28;20457;-47
2021/09/17 10:27:36;;;;;;;4.68;3.75;;;;;;;;;;4942716;29;20402;-47
2021/09/17 10:30:04;;;;;;;4.60;3.97;;;;;;;;;;4961717;28;20465;-47
2021/09/17 10:32:34;;;;;;;4.65;3.40;;;;;;;;;;4950167;28;20605;-48
2021/09/17 10:35:03;;;;;;;4.03;3.20;;;;;;;;;;4935644;28;20901;-48
2021/09/17 10:37:47;;;;;;;4.07;3.15;;;;;;;;;;4955990;28;20905;-47
2021/09/17 10:40:14;;;;;;;4.70;3.20;;;;;;;;;;4926968;28;20418;-51
2021/09/17 10:43:00;;;;;;;3.42;2.83;;;;;;;;;;4963490;28;20482;-48
2021/09/17 10:45:37;;;;;;;3.75;2.88;;;;;;;;;;4940604;28;20481;-47
2021/09/17 10:48:04;;;;;;;3.70;2.92;;;;;;;;;;4932083;29;20561;-46
2021/09/17 10:50:39;;;;;;;3.63;2.80;;;;;;;;;;4950752;28;20404;-46
2021/09/17 10:53:05;;;;;;;3.95;2.92;;;;;;;;;;4945033;28;20452;-47
2021/09/17 10:55:52;;;;;;;3.72;2.80;;;;;;;;;;4947506;28;20489;-46
2021/09/17 10:58:29;;;;;;;3.45;2.90;;;;;;;;;;4948361;28;20507;-47
2021/09/17 11:01:00;;;;;;;4.10;3.00;;;;;;;;;;4937102;29;20444;-47
2021/09/17 11:03:42;;;;;;;3.88;2.90;;;;;;;;;;4934645;28;20915;-48
2021/09/17 11:06:26;;;;;;;3.80;2.97;;;;;;;;;;4953030;28;20436;-47
2021/09/17 11:08:57;;;;;;;3.50;2.70;;;;;;;;;;4922522;29;20434;-43
2021/09/17 11:11:29;;;;;;;3.63;3.00;;;;;;;;;;4940712;28;20391;-48
2021/09/17 11:14:06;;;;;;;3.88;2.80;;;;;;;;;;4943522;29;20418;-46
2021/09/17 11:16:33;;;;;;;3.70;2.60;;;;;;;;;;4945458;28;20428;-47
2021/09/17 11:19:01;;;;;;;4.85;3.00;;;;;;;;;;4930831;29;21027;-60
2021/09/17 11:21:31;;;;;;;6.40;2.95;;;;;;;;;;4948702;28;20418;-46
2021/09/17 11:23:58;;;;;;;6.13;3.08;;;;;;;;;;4946787;28;20426;-45
2021/09/17 11:26:26;;;;;;;6.80;3.33;;;;;;;;;;4931598;28;20390;-45
2021/09/17 11:29:09;;;;;;;6.05;2.72;;;;;;;;;;4949658;29;20394;-48
